sensor_id;sensor_type;location;lat;lon;timestamp;P1;durP1;ratioP1;P2;durP2;ratioP2
8628;SDS011;4352;49.404;11.092;2023-02-01T00:00:14;7.23;;;4.43;;
8628;SDS011;4352;49.404;11.092;2023-02-01T00:02:41;6.87;;;4.53;;
8628;SDS011;4352;49.404;11.092;2023-02-01T00:05:08;9.13;;;4.70;;
8628;SDS011;4352;49.404;11.092;2023-02-01T00:07:37;8.43;;;4.73;;
8628;SDS011;4352;49.404;11.092;2023-02-01T00:10:05;6.57;;;4.93;;
8628;SDS011;4352;49.404;11.092;2023-02-01T00:12:32;6.60;;;5.10;;
8628;SDS011;4352;49.404;11.092;2023-02-01T00:14:59;8.20;;;5.23;;
8628;SDS011;4352;49.404;11.092;2023-02-01T00:17:26;8.07;;;5.03;;
8628;SDS011;4352;49.404;11.092;2023-02-01T00:19:53;6.07;;;5.10;;
8628;SDS011;4352;49.404;11.092;2023-02-01T00:22:20;8.27;;;5.23;;
8628;SDS011;4352;49.404;11.092;2023-02-01T00:24:49;6.83;;;5.23;;
8628;SDS011;4352;49.404;11.092;2023-02-01T00:27:16;11.40;;;5.23;;
8628;SDS011;4352;49.404;11.092;2023-02-01T00:29:46;6.33;;;4.87;;
8628;SDS011;4352;49.404;11.092;2023-02-01T00:32:13;7.83;;;4.97;;
8628;SDS011;4352;49.404;11.092;2023-02-01T00:34:40;7.27;;;5.17;;
8628;SDS011;4352;49.404;11.092;2023-02-01T00:37:07;8.70;;;5.30;;
8628;SDS011;4352;49.404;11.092;2023-02-01T00:39:34;6.60;;;4.80;;
8628;SDS011;4352;49.404;11.092;2023-02-01T00:42:03;8.13;;;5.60;;
8628;SDS011;4352;49.404;11.092;2023-02-01T00:44:30;7.83;;;5.63;;
8628;SDS011;4352;49.404;11.092;2023-02-01T00:46:59;7.40;;;5.10;;
8628;SDS011;4352;49.404;11.092;2023-02-01T00:49:26;9.13;;;5.80;;
8628;SDS011;4352;49.404;11.092;2023-02-01T00:51:54;10.77;;;5.37;;
8628;SDS011;4352;49.404;11.092;2023-02-01T00:54:21;9.27;;;5.63;;
8628;SDS011;4352;49.404;11.092;2023-02-01T00:56:48;9.07;;;5.33;;
8628;SDS011;4352;49.404;11.092;2023-02-01T00:59:17;7.87;;;4.87;;
8628;SDS011;4352;49.404;11.092;2023-02-01T01:01:44;8.57;;;5.37;;
8628;SDS011;4352;49.404;11.092;2023-02-01T01:04:11;7.47;;;5.53;;
8628;SDS011;4352;49.404;11.092;2023-02-01T01:06:38;7.40;;;5.13;;
8628;SDS011;4352;49.404;11.092;2023-02-01T01:09:06;8.47;;;5.30;;
8628;SDS011;4352;49.404;11.092;2023-02-01T01:11:34;9.67;;;5.97;;
8628;SDS011;4352;49.404;11.092;2023-02-01T01:14:02;7.87;;;5.03;;
8628;SDS011;4352;49.404;11.092;2023-02-01T01:16:31;9.07;;;6.00;;
8628;SDS011;4352;49.404;11.092;2023-02-01T01:18:59;8.07;;;5.77;;
8628;SDS011;4352;49.404;11.092;2023-02-01T01:21:26;8.77;;;4.97;;
8628;SDS011;4352;49.404;11.092;2023-02-01T01:23:53;8.00;;;6.00;;
8628;SDS011;4352;49.404;11.092;2023-02-01T01:26:21;7.53;;;5.03;;
8628;SDS011;4352;49.404;11.092;2023-02-01T01:28:48;8.63;;;6.00;;
8628;SDS011;4352;49.404;11.092;2023-02-01T01:31:16;11.60;;;6.13;;
8628;SDS011;4352;49.404;11.092;2023-02-01T01:33:46;7.97;;;5.37;;
8628;SDS011;4352;49.404;11.092;2023-02-01T01:36:14;6.87;;;5.20;;
8628;SDS011;4352;49.404;11.092;2023-02-01T01:38:41;10.57;;;6.07;;
8628;SDS011;4352;49.404;11.092;2023-02-01T01:41:08;5.60;;;4.57;;
8628;SDS011;4352;49.404;11.092;2023-02-01T01:43:46;9.00;;;6.23;;
8628;SDS011;4352;49.404;11.092;2023-02-01T01:46:15;7.70;;;4.93;;
8628;SDS011;4352;49.404;11.092;2023-02-01T01:48:42;6.47;;;5.43;;
8628;SDS011;4352;49.404;11.092;2023-02-01T01:51:10;8.13;;;5.57;;
8628;SDS011;4352;49.404;11.092;2023-02-01T01:53:41;7.33;;;5.63;;
8628;SDS011;4352;49.404;11.092;2023-02-01T01:56:10;7.63;;;4.93;;
8628;SDS011;4352;49.404;11.092;2023-02-01T01:58:37;7.40;;;5.30;;
8628;SDS011;4352;49.404;11.092;2023-02-01T02:01:04;6.70;;;5.33;;
8628;SDS011;4352;49.404;11.092;2023-02-01T02:03:32;8.47;;;5.43;;
8628;SDS011;4352;49.404;11.092;2023-02-01T02:06:00;7.63;;;5.03;;
8628;SDS011;4352;49.404;11.092;2023-02-01T02:08:29;7.70;;;5.27;;
8628;SDS011;4352;49.404;11.092;2023-02-01T02:10:56;7.53;;;5.03;;
8628;SDS011;4352;49.404;11.092;2023-02-01T02:13:26;9.53;;;5.60;;
8628;SDS011;4352;49.404;11.092;2023-02-01T02:15:58;8.63;;;5.30;;
8628;SDS011;4352;49.404;11.092;2023-02-01T02:18:27;6.00;;;4.57;;
8628;SDS011;4352;49.404;11.092;2023-02-01T02:26:36;5.70;;;4.17;;
8628;SDS011;4352;49.404;11.092;2023-02-01T02:34:34;5.50;;;4.37;;
8628;SDS011;4352;49.404;11.092;2023-02-01T02:37:07;5.73;;;4.40;;
8628;SDS011;4352;49.404;11.092;2023-02-01T02:39:38;8.07;;;5.27;;
8628;SDS011;4352;49.404;11.092;2023-02-01T02:42:10;7.43;;;4.70;;
8628;SDS011;4352;49.404;11.092;2023-02-01T02:44:57;6.93;;;4.93;;
8628;SDS011;4352;49.404;11.092;2023-02-01T02:47:47;6.80;;;5.20;;
8628;SDS011;4352;49.404;11.092;2023-02-01T02:50:20;10.30;;;6.03;;
8628;SDS011;4352;49.404;11.092;2023-02-01T02:53:09;9.03;;;5.57;;
8628;SDS011;4352;49.404;11.092;2023-02-01T02:56:05;9.77;;;5.40;;
8628;SDS011;4352;49.404;11.092;2023-02-01T02:58:51;8.53;;;5.50;;
8628;SDS011;4352;49.404;11.092;2023-02-01T03:01:36;8.67;;;6.47;;
8628;SDS011;4352;49.404;11.092;2023-02-01T03:04:22;8.20;;;5.87;;
8628;SDS011;4352;49.404;11.092;2023-02-01T03:06:52;7.73;;;5.60;;
8628;SDS011;4352;49.404;11.092;2023-02-01T03:09:20;8.80;;;6.40;;
8628;SDS011;4352;49.404;11.092;2023-02-01T03:11:48;7.30;;;5.90;;
8628;SDS011;4352;49.404;11.092;2023-02-01T03:14:36;10.43;;;5.97;;
8628;SDS011;4352;49.404;11.092;2023-02-01T03:17:04;8.77;;;6.23;;
8628;SDS011;4352;49.404;11.092;2023-02-01T03:19:35;10.03;;;6.33;;
8628;SDS011;4352;49.404;11.092;2023-02-01T03:22:10;9.67;;;6.70;;
8628;SDS011;4352;49.404;11.092;2023-02-01T03:24:40;9.57;;;6.27;;
8628;SDS011;4352;49.404;11.092;2023-02-01T03:27:10;10.20;;;7.33;;
8628;SDS011;4352;49.404;11.092;2023-02-01T03:29:40;10.07;;;7.07;;
8628;SDS011;4352;49.404;11.092;2023-02-01T03:32:10;11.77;;;6.63;;
8628;SDS011;4352;49.404;11.092;2023-02-01T03:34:37;10.80;;;6.93;;
8628;SDS011;4352;49.404;11.092;2023-02-01T03:37:05;9.07;;;7.30;;
8628;SDS011;4352;49.404;11.092;2023-02-01T03:39:36;9.57;;;7.37;;
8628;SDS011;4352;49.404;11.092;2023-02-01T03:42:05;9.00;;;6.73;;
8628;SDS011;4352;49.404;11.092;2023-02-01T03:44:36;9.37;;;7.30;;
8628;SDS011;4352;49.404;11.092;2023-02-01T03:47:06;12.67;;;7.37;;
8628;SDS011;4352;49.404;11.092;2023-02-01T03:49:36;8.53;;;6.73;;
8628;SDS011;4352;49.404;11.092;2023-02-01T03:52:06;10.77;;;6.93;;
8628;SDS011;4352;49.404;11.092;2023-02-01T03:54:33;10.63;;;7.03;;
8628;SDS011;4352;49.404;11.092;2023-02-01T03:57:03;10.90;;;6.80;;
8628;SDS011;4352;49.404;11.092;2023-02-01T03:59:31;8.23;;;6.67;;
8628;SDS011;4352;49.404;11.092;2023-02-01T04:01:58;9.03;;;6.43;;
8628;SDS011;4352;49.404;11.092;2023-02-01T04:04:26;10.27;;;6.90;;
8628;SDS011;4352;49.404;11.092;2023-02-01T04:06:53;11.43;;;7.23;;
8628;SDS011;4352;49.404;11.092;2023-02-01T04:09:20;9.47;;;6.93;;
8628;SDS011;4352;49.404;11.092;2023-02-01T04:11:47;9.77;;;7.03;;
8628;SDS011;4352;49.404;11.092;2023-02-01T04:14:16;9.30;;;6.73;;
8628;SDS011;4352;49.404;11.092;2023-02-01T04:16:43;9.43;;;6.80;;
8628;SDS011;4352;49.404;11.092;2023-02-01T04:19:10;10.47;;;6.60;;
8628;SDS011;4352;49.404;11.092;2023-02-01T04:21:37;11.70;;;6.73;;
8628;SDS011;4352;49.404;11.092;2023-02-01T04:24:04;8.07;;;6.33;;
8628;SDS011;4352;49.404;11.092;2023-02-01T04:26:32;9.93;;;6.83;;
8628;SDS011;4352;49.404;11.092;2023-02-01T04:28:59;10.10;;;6.00;;
8628;SDS011;4352;49.404;11.092;2023-02-01T04:31:27;7.60;;;6.13;;
8628;SDS011;4352;49.404;11.092;2023-02-01T04:33:55;10.60;;;6.20;;
8628;SDS011;4352;49.404;11.092;2023-02-01T04:36:23;8.90;;;6.23;;
8628;SDS011;4352;49.404;11.092;2023-02-01T04:38:50;8.40;;;6.50;;
8628;SDS011;4352;49.404;11.092;2023-02-01T04:41:18;7.47;;;5.70;;
8628;SDS011;4352;49.404;11.092;2023-02-01T04:43:45;7.53;;;6.17;;
8628;SDS011;4352;49.404;11.092;2023-02-01T04:46:12;7.60;;;5.67;;
8628;SDS011;4352;49.404;11.092;2023-02-01T04:48:40;10.07;;;6.20;;
8628;SDS011;4352;49.404;11.092;2023-02-01T04:51:09;10.50;;;6.30;;
8628;SDS011;4352;49.404;11.092;2023-02-01T04:53:36;11.20;;;6.10;;
8628;SDS011;4352;49.404;11.092;2023-02-01T04:56:03;8.93;;;6.10;;
8628;SDS011;4352;49.404;11.092;2023-02-01T04:58:31;8.97;;;6.27;;
8628;SDS011;4352;49.404;11.092;2023-02-01T05:00:58;9.50;;;5.83;;
8628;SDS011;4352;49.404;11.092;2023-02-01T05:03:27;9.20;;;6.23;;
8628;SDS011;4352;49.404;11.092;2023-02-01T05:05:56;8.23;;;5.77;;
8628;SDS011;4352;49.404;11.092;2023-02-01T05:08:23;9.03;;;6.13;;
8628;SDS011;4352;49.404;11.092;2023-02-01T05:10:51;11.70;;;6.37;;
8628;SDS011;4352;49.404;11.092;2023-02-01T05:13:18;10.83;;;6.07;;
8628;SDS011;4352;49.404;11.092;2023-02-01T05:16:02;10.90;;;6.27;;
8628;SDS011;4352;49.404;11.092;2023-02-01T05:18:29;9.67;;;6.90;;
8628;SDS011;4352;49.404;11.092;2023-02-01T05:20:58;9.73;;;6.03;;
8628;SDS011;4352;49.404;11.092;2023-02-01T05:23:26;10.10;;;5.87;;
8628;SDS011;4352;49.404;11.092;2023-02-01T05:25:57;14.37;;;6.73;;
8628;SDS011;4352;49.404;11.092;2023-02-01T05:28:24;13.07;;;6.90;;
8628;SDS011;4352;49.404;11.092;2023-02-01T05:30:51;12.03;;;6.80;;
8628;SDS011;4352;49.404;11.092;2023-02-01T05:33:18;9.90;;;7.53;;
8628;SDS011;4352;49.404;11.092;2023-02-01T05:35:45;11.83;;;6.93;;
8628;SDS011;4352;49.404;11.092;2023-02-01T05:38:14;12.10;;;7.77;;
8628;SDS011;4352;49.404;11.092;2023-02-01T05:40:41;10.07;;;7.00;;
8628;SDS011;4352;49.404;11.092;2023-02-01T05:43:14;10.57;;;7.17;;
8628;SDS011;4352;49.404;11.092;2023-02-01T05:45:42;13.60;;;8.30;;
8628;SDS011;4352;49.404;11.092;2023-02-01T05:48:09;14.90;;;8.30;;
8628;SDS011;4352;49.404;11.092;2023-02-01T05:50:36;13.80;;;7.73;;
8628;SDS011;4352;49.404;11.092;2023-02-01T05:53:03;12.03;;;7.83;;
8628;SDS011;4352;49.404;11.092;2023-02-01T05:55:31;13.20;;;8.33;;
8628;SDS011;4352;49.404;11.092;2023-02-01T05:57:59;15.90;;;8.63;;
8628;SDS011;4352;49.404;11.092;2023-02-01T06:00:26;15.33;;;8.70;;
8628;SDS011;4352;49.404;11.092;2023-02-01T06:02:53;15.87;;;8.60;;
8628;SDS011;4352;49.404;11.092;2023-02-01T06:05:20;10.77;;;7.93;;
8628;SDS011;4352;49.404;11.092;2023-02-01T06:07:47;13.30;;;7.13;;
8628;SDS011;4352;49.404;11.092;2023-02-01T06:10:15;12.63;;;6.77;;
8628;SDS011;4352;49.404;11.092;2023-02-01T06:12:44;7.50;;;6.33;;
8628;SDS011;4352;49.404;11.092;2023-02-01T06:15:11;8.33;;;6.13;;
8628;SDS011;4352;49.404;11.092;2023-02-01T06:17:40;12.97;;;7.17;;
8628;SDS011;4352;49.404;11.092;2023-02-01T06:20:09;7.87;;;6.13;;
8628;SDS011;4352;49.404;11.092;2023-02-01T06:22:36;12.47;;;6.67;;
8628;SDS011;4352;49.404;11.092;2023-02-01T06:25:03;10.60;;;6.30;;
8628;SDS011;4352;49.404;11.092;2023-02-01T06:27:31;8.57;;;5.93;;
8628;SDS011;4352;49.404;11.092;2023-02-01T06:30:00;11.40;;;6.50;;
8628;SDS011;4352;49.404;11.092;2023-02-01T06:32:27;7.47;;;5.53;;
8628;SDS011;4352;49.404;11.092;2023-02-01T06:34:54;7.47;;;5.73;;
8628;SDS011;4352;49.404;11.092;2023-02-01T06:37:21;10.27;;;6.23;;
8628;SDS011;4352;49.404;11.092;2023-02-01T06:39:49;9.10;;;6.03;;
8628;SDS011;4352;49.404;11.092;2023-02-01T06:42:16;9.23;;;6.07;;
8628;SDS011;4352;49.404;11.092;2023-02-01T06:44:43;7.50;;;5.60;;
8628;SDS011;4352;49.404;11.092;2023-02-01T06:47:12;8.97;;;5.77;;
8628;SDS011;4352;49.404;11.092;2023-02-01T06:49:39;8.00;;;5.43;;
8628;SDS011;4352;49.404;11.092;2023-02-01T06:52:06;8.07;;;5.63;;
8628;SDS011;4352;49.404;11.092;2023-02-01T06:54:33;6.73;;;4.93;;
8628;SDS011;4352;49.404;11.092;2023-02-01T06:57:02;7.57;;;4.83;;
8628;SDS011;4352;49.404;11.092;2023-02-01T06:59:29;8.53;;;6.23;;
8628;SDS011;4352;49.404;11.092;2023-02-01T07:01:56;11.70;;;7.53;;
8628;SDS011;4352;49.404;11.092;2023-02-01T07:04:25;10.73;;;6.67;;
8628;SDS011;4352;49.404;11.092;2023-02-01T07:06:52;8.43;;;5.87;;
8628;SDS011;4352;49.404;11.092;2023-02-01T07:09:19;8.87;;;4.90;;
8628;SDS011;4352;49.404;11.092;2023-02-01T07:11:46;6.03;;;4.33;;
8628;SDS011;4352;49.404;11.092;2023-02-01T07:14:13;5.23;;;4.10;;
8628;SDS011;4352;49.404;11.092;2023-02-01T07:16:40;5.67;;;4.57;;
8628;SDS011;4352;49.404;11.092;2023-02-01T07:19:07;6.20;;;4.50;;
8628;SDS011;4352;49.404;11.092;2023-02-01T07:21:35;7.53;;;4.53;;
8628;SDS011;4352;49.404;11.092;2023-02-01T07:24:03;6.40;;;4.90;;
8628;SDS011;4352;49.404;11.092;2023-02-01T07:26:30;7.00;;;4.67;;
8628;SDS011;4352;49.404;11.092;2023-02-01T07:28:57;6.73;;;5.13;;
8628;SDS011;4352;49.404;11.092;2023-02-01T07:31:24;10.00;;;5.03;;
8628;SDS011;4352;49.404;11.092;2023-02-01T07:33:54;7.70;;;4.87;;
8628;SDS011;4352;49.404;11.092;2023-02-01T07:36:23;7.53;;;5.70;;
8628;SDS011;4352;49.404;11.092;2023-02-01T07:38:51;7.67;;;5.33;;
8628;SDS011;4352;49.404;11.092;2023-02-01T07:41:19;9.27;;;5.13;;
8628;SDS011;4352;49.404;11.092;2023-02-01T07:43:46;9.47;;;5.00;;
8628;SDS011;4352;49.404;11.092;2023-02-01T07:46:15;7.70;;;4.80;;
8628;SDS011;4352;49.404;11.092;2023-02-01T07:48:42;9.13;;;5.27;;
8628;SDS011;4352;49.404;11.092;2023-02-01T07:51:10;7.50;;;4.70;;
8628;SDS011;4352;49.404;11.092;2023-02-01T07:53:38;8.00;;;5.50;;
8628;SDS011;4352;49.404;11.092;2023-02-01T07:56:10;6.90;;;5.10;;
8628;SDS011;4352;49.404;11.092;2023-02-01T07:58:38;7.03;;;4.53;;
8628;SDS011;4352;49.404;11.092;2023-02-01T08:01:05;7.43;;;4.47;;
8628;SDS011;4352;49.404;11.092;2023-02-01T08:03:50;9.67;;;4.53;;
8628;SDS011;4352;49.404;11.092;2023-02-01T08:06:17;11.53;;;4.40;;
8628;SDS011;4352;49.404;11.092;2023-02-01T08:08:45;7.27;;;3.83;;
8628;SDS011;4352;49.404;11.092;2023-02-01T08:11:14;8.90;;;3.97;;
8628;SDS011;4352;49.404;11.092;2023-02-01T08:13:41;7.47;;;4.23;;
8628;SDS011;4352;49.404;11.092;2023-02-01T08:16:09;8.73;;;4.03;;
8628;SDS011;4352;49.404;11.092;2023-02-01T08:18:37;7.47;;;3.40;;
8628;SDS011;4352;49.404;11.092;2023-02-01T08:21:04;5.07;;;3.40;;
8628;SDS011;4352;49.404;11.092;2023-02-01T08:23:32;7.73;;;3.67;;
8628;SDS011;4352;49.404;11.092;2023-02-01T08:26:09;6.93;;;4.00;;
8628;SDS011;4352;49.404;11.092;2023-02-01T08:28:39;7.00;;;3.30;;
8628;SDS011;4352;49.404;11.092;2023-02-01T08:31:06;6.50;;;3.40;;
8628;SDS011;4352;49.404;11.092;2023-02-01T08:33:34;9.37;;;3.57;;
8628;SDS011;4352;49.404;11.092;2023-02-01T08:36:02;8.40;;;3.60;;
8628;SDS011;4352;49.404;11.092;2023-02-01T08:38:29;6.80;;;3.10;;
8628;SDS011;4352;49.404;11.092;2023-02-01T08:40:56;5.13;;;2.97;;
8628;SDS011;4352;49.404;11.092;2023-02-01T08:43:24;8.27;;;3.00;;
8628;SDS011;4352;49.404;11.092;2023-02-01T08:45:54;7.67;;;3.20;;
8628;SDS011;4352;49.404;11.092;2023-02-01T08:48:21;7.97;;;2.90;;
8628;SDS011;4352;49.404;11.092;2023-02-01T08:50:49;4.90;;;2.77;;
8628;SDS011;4352;49.404;11.092;2023-02-01T08:53:16;3.70;;;2.73;;
8628;SDS011;4352;49.404;11.092;2023-02-01T08:55:44;4.67;;;2.87;;
8628;SDS011;4352;49.404;11.092;2023-02-01T08:58:12;5.63;;;3.00;;
8628;SDS011;4352;49.404;11.092;2023-02-01T09:00:39;4.40;;;2.73;;
8628;SDS011;4352;49.404;11.092;2023-02-01T09:03:08;8.13;;;4.27;;
8628;SDS011;4352;49.404;11.092;2023-02-01T09:05:36;8.87;;;3.73;;
8628;SDS011;4352;49.404;11.092;2023-02-01T09:08:03;9.23;;;3.80;;
8628;SDS011;4352;49.404;11.092;2023-02-01T09:10:31;12.53;;;4.13;;
8628;SDS011;4352;49.404;11.092;2023-02-01T09:12:58;11.13;;;3.80;;
8628;SDS011;4352;49.404;11.092;2023-02-01T09:15:25;14.80;;;6.27;;
8628;SDS011;4352;49.404;11.092;2023-02-01T09:17:52;9.33;;;4.37;;
8628;SDS011;4352;49.404;11.092;2023-02-01T09:20:20;5.97;;;3.53;;
8628;SDS011;4352;49.404;11.092;2023-02-01T09:22:51;8.83;;;4.80;;
8628;SDS011;4352;49.404;11.092;2023-02-01T09:25:18;6.03;;;3.53;;
8628;SDS011;4352;49.404;11.092;2023-02-01T09:27:45;7.33;;;3.70;;
8628;SDS011;4352;49.404;11.092;2023-02-01T09:30:12;8.20;;;3.90;;
8628;SDS011;4352;49.404;11.092;2023-02-01T09:32:39;9.33;;;3.27;;
8628;SDS011;4352;49.404;11.092;2023-02-01T09:35:06;8.03;;;2.97;;
8628;SDS011;4352;49.404;11.092;2023-02-01T09:37:35;4.13;;;2.20;;
8628;SDS011;4352;49.404;11.092;2023-02-01T09:40:03;6.70;;;2.60;;
8628;SDS011;4352;49.404;11.092;2023-02-01T09:42:45;7.90;;;2.50;;
8628;SDS011;4352;49.404;11.092;2023-02-01T09:45:17;10.00;;;2.93;;
8628;SDS011;4352;49.404;11.092;2023-02-01T09:47:47;8.57;;;2.70;;
8628;SDS011;4352;49.404;11.092;2023-02-01T09:50:16;9.13;;;2.70;;
8628;SDS011;4352;49.404;11.092;2023-02-01T09:52:47;11.37;;;2.80;;
8628;SDS011;4352;49.404;11.092;2023-02-01T09:55:18;9.50;;;3.00;;
8628;SDS011;4352;49.404;11.092;2023-02-01T09:57:49;7.47;;;2.90;;
8628;SDS011;4352;49.404;11.092;2023-02-01T10:00:19;8.30;;;2.53;;
8628;SDS011;4352;49.404;11.092;2023-02-01T10:02:47;7.63;;;2.87;;
8628;SDS011;4352;49.404;11.092;2023-02-01T10:05:16;6.93;;;2.70;;
8628;SDS011;4352;49.404;11.092;2023-02-01T10:07:49;11.13;;;3.80;;
8628;SDS011;4352;49.404;11.092;2023-02-01T10:10:20;5.57;;;2.70;;
8628;SDS011;4352;49.404;11.092;2023-02-01T10:12:58;6.43;;;2.97;;
8628;SDS011;4352;49.404;11.092;2023-02-01T10:15:30;5.03;;;2.70;;
8628;SDS011;4352;49.404;11.092;2023-02-01T10:18:10;9.23;;;2.97;;
8628;SDS011;4352;49.404;11.092;2023-02-01T10:20:46;6.83;;;3.17;;
8628;SDS011;4352;49.404;11.092;2023-02-01T10:23:21;7.97;;;3.63;;
8628;SDS011;4352;49.404;11.092;2023-02-01T10:25:53;6.30;;;3.40;;
8628;SDS011;4352;49.404;11.092;2023-02-01T10:28:21;19.53;;;4.80;;
8628;SDS011;4352;49.404;11.092;2023-02-01T10:30:49;8.83;;;4.07;;
8628;SDS011;4352;49.404;11.092;2023-02-01T10:33:19;9.93;;;4.30;;
8628;SDS011;4352;49.404;11.092;2023-02-01T10:35:50;18.73;;;4.20;;
8628;SDS011;4352;49.404;11.092;2023-02-01T10:38:23;14.60;;;4.53;;
8628;SDS011;4352;49.404;11.092;2023-02-01T10:40:51;13.97;;;3.93;;
8628;SDS011;4352;49.404;11.092;2023-02-01T10:43:18;13.53;;;5.07;;
8628;SDS011;4352;49.404;11.092;2023-02-01T10:45:46;11.83;;;4.13;;
8628;SDS011;4352;49.404;11.092;2023-02-01T10:48:13;14.50;;;3.90;;
8628;SDS011;4352;49.404;11.092;2023-02-01T10:50:44;9.77;;;3.60;;
8628;SDS011;4352;49.404;11.092;2023-02-01T10:53:15;16.47;;;3.87;;
8628;SDS011;4352;49.404;11.092;2023-02-01T10:55:48;13.47;;;3.73;;
8628;SDS011;4352;49.404;11.092;2023-02-01T10:58:16;8.63;;;3.33;;
8628;SDS011;4352;49.404;11.092;2023-02-01T11:00:45;8.03;;;3.13;;
8628;SDS011;4352;49.404;11.092;2023-02-01T11:03:27;13.20;;;3.77;;
8628;SDS011;4352;49.404;11.092;2023-02-01T11:05:57;9.97;;;3.53;;
8628;SDS011;4352;49.404;11.092;2023-02-01T11:08:24;11.00;;;3.77;;
8628;SDS011;4352;49.404;11.092;2023-02-01T11:10:58;10.20;;;3.47;;
8628;SDS011;4352;49.404;11.092;2023-02-01T11:13:28;6.97;;;3.00;;
8628;SDS011;4352;49.404;11.092;2023-02-01T11:15:56;9.63;;;3.33;;
8628;SDS011;4352;49.404;11.092;2023-02-01T11:18:25;7.23;;;3.10;;
8628;SDS011;4352;49.404;11.092;2023-02-01T11:20:53;16.07;;;4.30;;
8628;SDS011;4352;49.404;11.092;2023-02-01T11:23:21;7.80;;;2.80;;
8628;SDS011;4352;49.404;11.092;2023-02-01T11:25:51;11.23;;;2.73;;
8628;SDS011;4352;49.404;11.092;2023-02-01T11:28:21;8.80;;;2.87;;
8628;SDS011;4352;49.404;11.092;2023-02-01T11:30:49;7.77;;;3.30;;
8628;SDS011;4352;49.404;11.092;2023-02-01T11:33:19;9.30;;;3.40;;
8628;SDS011;4352;49.404;11.092;2023-02-01T11:35:48;7.93;;;2.87;;
8628;SDS011;4352;49.404;11.092;2023-02-01T11:38:19;12.83;;;3.10;;
8628;SDS011;4352;49.404;11.092;2023-02-01T11:40:46;9.53;;;3.03;;
8628;SDS011;4352;49.404;11.092;2023-02-01T11:43:15;7.10;;;3.10;;
8628;SDS011;4352;49.404;11.092;2023-02-01T11:45:54;9.37;;;3.13;;
8628;SDS011;4352;49.404;11.092;2023-02-01T11:48:21;8.00;;;2.90;;
8628;SDS011;4352;49.404;11.092;2023-02-01T11:50:51;7.70;;;2.87;;
8628;SDS011;4352;49.404;11.092;2023-02-01T11:53:25;11.93;;;2.77;;
8628;SDS011;4352;49.404;11.092;2023-02-01T11:56:04;8.33;;;2.97;;
8628;SDS011;4352;49.404;11.092;2023-02-01T11:58:39;8.10;;;2.70;;
8628;SDS011;4352;49.404;11.092;2023-02-01T12:01:12;6.53;;;2.80;;
8628;SDS011;4352;49.404;11.092;2023-02-01T12:04:01;10.90;;;2.87;;
8628;SDS011;4352;49.404;11.092;2023-02-01T12:06:32;8.60;;;2.93;;
8628;SDS011;4352;49.404;11.092;2023-02-01T12:09:07;11.60;;;3.47;;
8628;SDS011;4352;49.404;11.092;2023-02-01T12:11:40;8.20;;;2.70;;
8628;SDS011;4352;49.404;11.092;2023-02-01T12:14:14;10.43;;;2.97;;
8628;SDS011;4352;49.404;11.092;2023-02-01T12:16:48;6.50;;;2.80;;
8628;SDS011;4352;49.404;11.092;2023-02-01T12:19:22;9.73;;;3.17;;
8628;SDS011;4352;49.404;11.092;2023-02-01T12:21:53;9.77;;;3.17;;
8628;SDS011;4352;49.404;11.092;2023-02-01T12:27:14;13.80;;;4.23;;
8628;SDS011;4352;49.404;11.092;2023-02-01T12:29:57;10.93;;;3.37;;
8628;SDS011;4352;49.404;11.092;2023-02-01T12:32:39;9.10;;;2.70;;
8628;SDS011;4352;49.404;11.092;2023-02-01T12:37:57;10.03;;;2.80;;
8628;SDS011;4352;49.404;11.092;2023-02-01T12:40:31;11.47;;;3.43;;
8628;SDS011;4352;49.404;11.092;2023-02-01T12:43:03;14.87;;;3.40;;
8628;SDS011;4352;49.404;11.092;2023-02-01T12:45:31;16.53;;;5.73;;
8628;SDS011;4352;49.404;11.092;2023-02-01T12:48:04;10.70;;;4.30;;
8628;SDS011;4352;49.404;11.092;2023-02-01T12:50:42;15.17;;;4.53;;
8628;SDS011;4352;49.404;11.092;2023-02-01T12:53:12;11.17;;;3.03;;
8628;SDS011;4352;49.404;11.092;2023-02-01T12:55:46;11.03;;;3.73;;
8628;SDS011;4352;49.404;11.092;2023-02-01T12:58:15;12.60;;;4.20;;
8628;SDS011;4352;49.404;11.092;2023-02-01T13:00:45;16.50;;;5.23;;
8628;SDS011;4352;49.404;11.092;2023-02-01T13:03:17;14.37;;;3.77;;
8628;SDS011;4352;49.404;11.092;2023-02-01T13:05:50;13.00;;;3.83;;
8628;SDS011;4352;49.404;11.092;2023-02-01T13:08:20;13.17;;;3.90;;
8628;SDS011;4352;49.404;11.092;2023-02-01T13:10:50;12.50;;;3.77;;
8628;SDS011;4352;49.404;11.092;2023-02-01T13:13:22;13.43;;;5.53;;
8628;SDS011;4352;49.404;11.092;2023-02-01T13:15:58;24.37;;;10.27;;
8628;SDS011;4352;49.404;11.092;2023-02-01T13:18:35;33.43;;;11.03;;
8628;SDS011;4352;49.404;11.092;2023-02-01T13:21:04;22.67;;;8.70;;
8628;SDS011;4352;49.404;11.092;2023-02-01T13:23:33;24.10;;;7.83;;
8628;SDS011;4352;49.404;11.092;2023-02-01T13:26:01;13.90;;;4.73;;
8628;SDS011;4352;49.404;11.092;2023-02-01T13:28:29;14.50;;;4.17;;
8628;SDS011;4352;49.404;11.092;2023-02-01T13:31:10;8.43;;;3.50;;
8628;SDS011;4352;49.404;11.092;2023-02-01T13:33:47;11.20;;;3.50;;
8628;SDS011;4352;49.404;11.092;2023-02-01T13:36:27;8.77;;;2.90;;
8628;SDS011;4352;49.404;11.092;2023-02-01T13:39:04;9.07;;;3.03;;
8628;SDS011;4352;49.404;11.092;2023-02-01T13:41:34;10.70;;;3.80;;
8628;SDS011;4352;49.404;11.092;2023-02-01T13:44:03;9.87;;;3.40;;
8628;SDS011;4352;49.404;11.092;2023-02-01T13:46:37;7.53;;;3.23;;
8628;SDS011;4352;49.404;11.092;2023-02-01T13:49:06;17.77;;;5.67;;
8628;SDS011;4352;49.404;11.092;2023-02-01T13:51:37;15.30;;;5.03;;
8628;SDS011;4352;49.404;11.092;2023-02-01T13:54:07;23.77;;;7.03;;
8628;SDS011;4352;49.404;11.092;2023-02-01T13:56:41;13.17;;;4.20;;
8628;SDS011;4352;49.404;11.092;2023-02-01T14:01:54;15.37;;;5.47;;
8628;SDS011;4352;49.404;11.092;2023-02-01T14:07:15;11.57;;;3.40;;
8628;SDS011;4352;49.404;11.092;2023-02-01T14:09:43;12.50;;;2.87;;
8628;SDS011;4352;49.404;11.092;2023-02-01T14:15:13;10.13;;;3.07;;
8628;SDS011;4352;49.404;11.092;2023-02-01T14:17:43;9.03;;;2.60;;
8628;SDS011;4352;49.404;11.092;2023-02-01T14:23:22;12.13;;;3.80;;
8628;SDS011;4352;49.404;11.092;2023-02-01T14:26:01;16.20;;;3.73;;
8628;SDS011;4352;49.404;11.092;2023-02-01T14:28:29;11.90;;;4.80;;
8628;SDS011;4352;49.404;11.092;2023-02-01T14:30:57;16.07;;;4.47;;
8628;SDS011;4352;49.404;11.092;2023-02-01T14:33:26;10.87;;;4.00;;
8628;SDS011;4352;49.404;11.092;2023-02-01T14:36:00;12.13;;;5.30;;
8628;SDS011;4352;49.404;11.092;2023-02-01T14:38:29;21.23;;;3.80;;
8628;SDS011;4352;49.404;11.092;2023-02-01T14:41:10;10.17;;;4.07;;
8628;SDS011;4352;49.404;11.092;2023-02-01T14:43:49;10.30;;;3.37;;
8628;SDS011;4352;49.404;11.092;2023-02-01T14:46:16;12.03;;;4.10;;
8628;SDS011;4352;49.404;11.092;2023-02-01T14:48:44;10.50;;;3.30;;
8628;SDS011;4352;49.404;11.092;2023-02-01T14:51:13;11.77;;;4.47;;
8628;SDS011;4352;49.404;11.092;2023-02-01T14:53:42;14.80;;;4.07;;
8628;SDS011;4352;49.404;11.092;2023-02-01T14:56:12;15.17;;;3.70;;
8628;SDS011;4352;49.404;11.092;2023-02-01T14:58:40;8.97;;;3.60;;
8628;SDS011;4352;49.404;11.092;2023-02-01T15:01:16;11.37;;;3.30;;
8628;SDS011;4352;49.404;11.092;2023-02-01T15:03:46;13.17;;;4.07;;
8628;SDS011;4352;49.404;11.092;2023-02-01T15:06:24;10.03;;;2.90;;
8628;SDS011;4352;49.404;11.092;2023-02-01T15:08:53;14.23;;;4.30;;
8628;SDS011;4352;49.404;11.092;2023-02-01T15:11:21;12.27;;;3.27;;
8628;SDS011;4352;49.404;11.092;2023-02-01T15:13:49;15.27;;;3.97;;
8628;SDS011;4352;49.404;11.092;2023-02-01T15:16:18;15.27;;;4.57;;
8628;SDS011;4352;49.404;11.092;2023-02-01T15:18:47;14.63;;;4.07;;
8628;SDS011;4352;49.404;11.092;2023-02-01T15:21:15;14.70;;;4.00;;
8628;SDS011;4352;49.404;11.092;2023-02-01T15:23:42;19.53;;;5.23;;
8628;SDS011;4352;49.404;11.092;2023-02-01T15:26:25;14.23;;;3.73;;
8628;SDS011;4352;49.404;11.092;2023-02-01T15:28:52;14.90;;;5.07;;
8628;SDS011;4352;49.404;11.092;2023-02-01T15:31:31;14.23;;;3.90;;
8628;SDS011;4352;49.404;11.092;2023-02-01T15:33:58;19.97;;;4.77;;
8628;SDS011;4352;49.404;11.092;2023-02-01T15:36:25;15.27;;;4.17;;
8628;SDS011;4352;49.404;11.092;2023-02-01T15:41:37;16.33;;;3.63;;